Time;durP1;ratioP1;P1;durP2;ratioP2;P2;SDS_P1;SDS_P2;PMS_P1;PMS_P2;Temp;Humidity;BMP_temperature;BMP_pressure;BME280_temperature;BME280_humidity;BME280_pressure;Samples;Min_cycle;Max_cycle;Signal;HPM_P1;HPM_P2
2021/09/02 00:02:18;;;;;;;20.95;10.88;;;;;;;16.65;68.18;101982.50;5034680;28;20088;-64
2021/09/02 00:04:45;;;;;;;19.40;10.98;;;;;;;16.62;67.76;101980.38;5036193;28;20057;-64
2021/09/02 00:07:13;;;;;;;20.73;11.70;;;;;;;16.50;67.81;101980.19;5034545;28;20412;-64
2021/09/02 00:09:40;;;;;;;23.30;11.30;;;;;;;16.62;68.10;101985.09;5036042;28;20516;-64
2021/09/02 00:12:08;;;;;;;20.35;11.38;;;;;;;16.62;67.49;101982.31;5036068;28;20054;-60
2021/09/02 00:14:35;;;;;;;19.27;11.40;;;;;;;16.92;68.68;101975.03;5054287;28;20059;-62
2021/09/02 00:17:06;;;;;;;18.30;11.48;;;;;;;16.84;67.71;101976.66;5054804;28;20048;-61
2021/09/02 00:19:35;;;;;;;22.00;11.77;;;;;;;16.82;67.05;101974.19;5038064;28;20057;-63
2021/09/02 00:22:06;;;;;;;18.10;11.00;;;;;;;16.75;67.14;101970.25;5053906;28;20061;-60
2021/09/02 00:24:33;;;;;;;18.20;10.80;;;;;;;16.86;66.77;101964.06;5055898;28;20504;-62
2021/09/02 00:27:01;;;;;;;20.25;11.80;;;;;;;16.55;68.38;101968.91;5056017;28;20722;-62
2021/09/02 00:29:29;;;;;;;20.77;11.88;;;;;;;16.48;67.91;101964.94;5054003;28;20408;-64
2021/09/02 00:31:59;;;;;;;20.15;11.68;;;;;;;16.22;69.71;101961.22;5055925;28;20052;-63
2021/09/02 00:34:26;;;;;;;21.83;11.90;;;;;;;16.30;68.78;101947.34;5055608;28;20055;-60
2021/09/02 00:36:54;;;;;;;17.30;11.60;;;;;;;16.26;68.67;101949.16;5055649;28;20618;-64
2021/09/02 00:39:21;;;;;;;20.55;11.93;;;;;;;16.35;68.96;101951.97;5055408;28;20053;-59
2021/09/02 00:41:48;;;;;;;19.67;11.57;;;;;;;16.34;68.85;101944.75;5055376;28;20040;-60
2021/09/02 00:44:34;;;;;;;18.88;11.52;;;;;;;16.43;69.56;101946.41;5055184;28;20057;-63
2021/09/02 00:47:03;;;;;;;19.40;11.30;;;;;;;16.55;68.45;101949.44;5054420;28;20080;-64
2021/09/02 00:49:30;;;;;;;17.30;11.35;;;;;;;16.64;67.41;101949.44;5053659;28;20059;-62
2021/09/02 00:52:00;;;;;;;20.90;12.38;;;;;;;16.26;68.89;101949.16;5055400;28;20053;-66
2021/09/02 00:54:28;;;;;;;20.48;11.77;;;;;;;16.15;69.32;101946.97;5055335;28;20052;-64
2021/09/02 00:56:56;;;;;;;20.65;11.52;;;;;;;16.02;69.57;101942.34;5055183;28;20061;-64
2021/09/02 00:59:27;;;;;;;20.52;11.73;;;;;;;16.02;69.89;101943.16;5053395;28;20048;-64
2021/09/02 01:01:54;;;;;;;;;;;;;;;16.16;70.67;101940.28;5053708;28;20048;-65
2021/09/02 01:04:22;;;;;;;23.15;12.40;;;;;;;16.27;69.12;101941.59;5054953;28;20412;-64
2021/09/02 01:06:51;;;;;;;19.42;12.00;;;;;;;16.01;70.18;101944.28;5053012;28;20623;-64
2021/09/02 01:09:18;;;;;;;25.35;13.68;;;;;;;16.08;69.58;101953.00;5052995;28;20056;-64
2021/09/02 01:11:48;;;;;;;;;;;;;;;16.23;69.08;101954.53;5055402;28;20068;-64
2021/09/02 01:14:17;;;;;;;21.48;12.73;;;;;;;16.19;69.28;101959.91;5036314;28;19944;-64
2021/09/02 01:16:48;;;;;;;21.50;11.43;;;;;;;16.44;69.87;101952.81;5032990;28;20046;-61
2021/09/02 01:19:20;;;;;;;24.48;12.80;;;;;;;16.46;69.10;101953.28;5034384;28;20046;-60
2021/09/02 01:21:48;;;;;;;17.83;12.13;;;;;;;16.42;68.10;101952.31;5034804;28;20041;-60
2021/09/02 01:24:15;;;;;;;18.58;11.93;;;;;;;16.39;68.89;101939.03;5033467;28;20525;-61
2021/09/02 01:26:43;;;;;;;25.13;13.23;;;;;;;15.96;69.74;101940.84;5034518;28;20057;-61
2021/09/02 01:29:11;;;;;;;21.88;12.77;;;;;;;15.97;69.57;101929.38;5032766;28;20049;-64
2021/09/02 01:31:42;;;;;;;20.63;12.05;;;;;;;16.14;70.20;101934.22;5034490;28;20056;-64
2021/09/02 01:34:10;;;;;;;19.83;12.70;;;;;;;15.83;70.46;101933.44;5033132;28;20049;-60
2021/09/02 01:36:37;;;;;;;24.40;13.45;;;;;;;15.77;71.38;101936.34;5032977;28;20060;-60
2021/09/02 01:39:04;;;;;;;23.33;13.25;;;;;;;15.57;70.80;101933.25;5033069;28;20057;-65
2021/09/02 01:41:31;;;;;;;26.00;13.18;;;;;;;15.70;70.63;101919.31;5034061;28;20049;-64
2021/09/02 01:43:59;;;;;;;26.77;13.38;;;;;;;15.74;72.18;101923.06;5032296;28;20050;-64
2021/09/02 01:46:26;;;;;;;25.67;13.32;;;;;;;15.70;71.23;101919.31;5032696;28;20508;-65
2021/09/02 01:48:54;;;;;;;21.98;13.43;;;;;;;15.93;71.19;101924.81;5032808;28;20049;-64
2021/09/02 01:51:22;;;;;;;19.58;12.80;;;;;;;15.78;71.01;101929.63;5032774;28;20049;-65
2021/09/02 01:53:49;;;;;;;20.95;13.02;;;;;;;15.77;70.74;101930.78;5034265;28;20045;-64
2021/09/02 01:56:16;;;;;;;22.90;14.18;;;;;;;15.54;71.55;101925.56;5034079;28;20420;-64
2021/09/02 01:58:43;;;;;;;21.25;13.00;;;;;;;15.30;72.84;101933.38;5033938;28;20057;-65
2021/09/02 02:01:10;;;;;;;24.05;14.07;;;;;;;15.62;72.47;101927.59;5031955;28;20056;-65
2021/09/02 02:03:38;;;;;;;23.05;13.43;;;;;;;15.67;71.12;101933.81;5033813;28;20493;-65
2021/09/02 02:06:05;;;;;;;23.05;13.80;;;;;;;15.51;71.40;101931.75;5033902;28;20054;-65
2021/09/02 02:08:33;;;;;;;22.83;13.52;;;;;;;15.41;72.16;101930.06;5033765;28;20057;-64
2021/09/02 02:11:00;;;;;;;27.30;13.48;;;;;;;15.62;71.79;101916.50;5034134;28;20057;-64
2021/09/02 02:13:27;;;;;;;22.83;13.98;;;;;;;15.79;70.88;101909.03;5042117;28;20057;-63
2021/09/02 02:15:54;;;;;;;22.65;14.07;;;;;;;15.15;73.49;101912.34;5052490;28;20052;-64
2021/09/02 02:18:22;;;;;;;23.83;14.82;;;;;;;15.27;72.92;101906.25;5051914;28;20053;-65
2021/09/02 02:20:49;;;;;;;23.30;14.43;;;;;;;15.35;73.14;101899.94;5053523;28;20045;-64
2021/09/02 02:23:16;;;;;;;23.75;14.00;;;;;;;15.53;72.48;101896.16;5052202;28;20519;-62
2021/09/02 02:25:44;;;;;;;23.58;13.32;;;;;;;15.61;71.42;101904.53;5052419;28;20079;-61
2021/09/02 02:28:11;;;;;;;24.38;13.70;;;;;;;15.63;71.16;101896.72;5052493;28;20076;-63
2021/09/02 02:30:39;;;;;;;25.70;14.18;;;;;;;15.32;72.49;101901.41;5053520;28;20053;-64
2021/09/02 02:33:06;;;;;;;24.55;13.88;;;;;;;15.22;73.22;101898.84;5053785;28;20056;-65
2021/09/02 02:35:33;;;;;;;25.00;14.63;;;;;;;15.03;73.66;101895.44;5051967;28;20052;-65
2021/09/02 02:38:00;;;;;;;31.30;16.25;;;;;;;14.87;74.16;101901.69;5053503;28;20498;-64
2021/09/02 02:40:28;;;;;;;24.70;15.07;;;;;;;15.16;74.23;101900.13;5052029;28;20060;-64
2021/09/02 02:42:56;;;;;;;29.95;16.35;;;;;;;15.21;73.50;101894.47;5053128;28;20048;-65
2021/09/02 02:45:23;;;;;;;22.77;15.15;;;;;;;15.03;73.36;101895.44;5053239;28;20075;-61
2021/09/02 02:47:50;;;;;;;24.58;15.40;;;;;;;15.02;74.09;101899.38;5052598;28;20053;-60
2021/09/02 02:50:18;;;;;;;25.83;15.60;;;;;;;15.28;73.75;101896.78;5053166;28;20482;-61
2021/09/02 02:52:45;;;;;;;26.98;15.35;;;;;;;15.44;72.95;101890.56;5053319;28;20041;-60
2021/09/02 02:55:12;;;;;;;24.17;14.80;;;;;;;15.61;72.42;101887.88;5053434;28;20374;-61
2021/09/02 02:57:40;;;;;;;26.90;14.93;;;;;;;15.90;71.55;101881.00;5053168;28;20401;-60
2021/09/02 03:00:08;;;;;;;26.27;14.30;;;;;;;15.76;70.96;101881.91;5053103;28;20512;-60
2021/09/02 03:02:35;;;;;;;23.83;15.23;;;;;;;15.70;71.34;101883.19;5052976;28;20148;-60
2021/09/02 03:05:03;;;;;;;26.45;14.95;;;;;;;15.63;71.62;101880.06;5053043;28;20056;-60
2021/09/02 03:07:34;;;;;;;28.92;16.17;;;;;;;15.53;71.54;101883.09;5035588;28;20067;-60
2021/09/02 03:10:04;;;;;;;27.38;16.33;;;;;;;15.67;72.09;101874.69;5052869;28;20116;-60
2021/09/02 03:12:31;;;;;;;26.20;16.13;;;;;;;15.62;72.91;101874.81;5048430;28;20049;-60
2021/09/02 03:14:58;;;;;;;26.88;16.42;;;;;;;15.46;73.16;101881.91;5033146;28;20046;-60
2021/09/02 03:17:26;;;;;;;26.08;16.08;;;;;;;15.39;72.81;101884.28;5033095;28;20060;-60
2021/09/02 03:19:53;;;;;;;26.42;16.63;;;;;;;15.44;72.39;101882.25;5030933;28;20468;-60
2021/09/02 03:22:21;;;;;;;32.95;16.95;;;;;;;15.20;72.93;101890.03;5033178;28;20052;-61
2021/09/02 03:24:48;;;;;;;28.17;16.55;;;;;;;15.15;73.32;101889.34;5033126;28;20065;-60
2021/09/02 03:27:15;;;;;;;27.58;16.73;;;;;;;15.18;73.45;101884.00;5032888;28;20064;-60
2021/09/02 03:29:43;;;;;;;25.95;16.48;;;;;;;14.96;73.62;101877.63;5031925;28;20045;-59
2021/09/02 03:32:10;;;;;;;24.08;16.08;;;;;;;15.05;74.25;101872.94;5032871;28;20452;-59
2021/09/02 03:34:37;;;;;;;26.75;16.98;;;;;;;15.04;74.10;101868.53;5033038;28;20053;-60
2021/09/02 03:37:05;;;;;;;26.45;16.27;;;;;;;15.25;72.93;101869.66;5032923;28;20050;-60
2021/09/02 03:39:32;;;;;;;27.85;16.40;;;;;;;15.29;72.94;101863.16;5034506;28;20525;-65
2021/09/02 03:41:59;;;;;;;30.33;17.92;;;;;;;14.85;73.86;101863.19;5036445;28;20045;-65
2021/09/02 03:44:27;;;;;;;28.75;17.65;;;;;;;14.72;75.16;101857.66;5036572;28;20041;-65
2021/09/02 03:46:54;;;;;;;28.17;17.48;;;;;;;14.82;75.09;101866.56;5035312;28;20068;-64
2021/09/02 03:49:21;;;;;;;30.08;16.60;;;;;;;14.83;74.94;101851.56;5036130;28;20053;-64
2021/09/02 03:51:48;;;;;;;28.08;17.38;;;;;;;14.84;75.04;101855.13;5036884;28;20058;-64
2021/09/02 03:54:16;;;;;;;31.75;17.00;;;;;;;14.78;75.11;101850.88;5036453;28;20058;-64
2021/09/02 03:56:43;;;;;;;30.70;17.17;;;;;;;14.75;74.74;101840.41;5035039;28;20539;-64
2021/09/02 03:59:10;;;;;;;31.95;19.27;;;;;;;14.81;74.95;101845.50;5035879;28;20053;-64
2021/09/02 04:01:37;;;;;;;32.47;17.23;;;;;;;14.89;74.63;101847.53;5036057;28;20064;-64
2021/09/02 04:04:05;;;;;;;32.15;17.88;;;;;;;14.97;74.49;101851.50;5036062;28;20041;-63
2021/09/02 04:06:32;;;;;;;28.73;16.83;;;;;;;15.21;73.48;101850.06;5036688;28;20058;-64
2021/09/02 04:08:59;;;;;;;30.08;17.80;;;;;;;14.80;74.13;101857.75;5035969;28;20045;-66
2021/09/02 04:11:26;;;;;;;32.92;19.40;;;;;;;14.74;74.59;101870.09;5035737;28;20053;-65
2021/09/02 04:13:54;;;;;;;29.98;18.13;;;;;;;14.93;74.67;101869.91;5049839;28;20045;-65
2021/09/02 04:16:22;;;;;;;31.58;18.08;;;;;;;15.26;73.70;101866.56;5056076;28;20052;-64
2021/09/02 04:18:50;;;;;;;29.27;17.90;;;;;;;14.86;74.59;101864.81;5055899;28;20041;-63
2021/09/02 04:21:17;;;;;;;27.25;17.38;;;;;;;14.77;76.00;101863.91;5055243;28;20053;-65
2021/09/02 04:23:46;;;;;;;31.55;19.23;;;;;;;14.33;76.42;101863.84;5055407;28;20464;-65
2021/09/02 04:26:14;;;;;;;36.90;18.80;;;;;;;14.47;76.03;101864.63;5055768;28;20056;-65
2021/09/02 04:28:41;;;;;;;32.78;19.08;;;;;;;14.41;76.07;101869.47;5054327;28;20303;-65
2021/09/02 04:31:08;;;;;;;34.53;19.02;;;;;;;14.64;76.27;101873.91;5054095;28;20060;-65
2021/09/02 04:33:35;;;;;;;30.65;17.80;;;;;;;14.62;76.44;101870.66;5021248;28;20052;-65
2021/09/02 04:36:03;;;;;;;30.77;17.52;;;;;;;15.02;75.07;101862.47;5054012;28;20055;-65
2021/09/02 04:38:30;;;;;;;31.73;18.02;;;;;;;14.93;73.97;101869.91;5055279;28;20518;-64
2021/09/02 04:40:58;;;;;;;30.95;19.08;;;;;;;15.05;73.99;101861.84;5044936;28;20514;-65
2021/09/02 04:43:25;;;;;;;34.95;18.85;;;;;;;14.99;73.80;101869.50;5031594;28;20190;-65
2021/09/02 04:45:53;;;;;;;34.95;19.27;;;;;;;14.73;74.33;101873.19;5033422;28;20049;-64
2021/09/02 04:48:21;;;;;;;33.35;18.30;;;;;;;14.76;75.68;101867.81;5034037;28;20041;-65
2021/09/02 04:50:50;;;;;;;27.98;17.60;;;;;;;14.98;73.54;101875.34;5033618;28;20057;-64
2021/09/02 04:53:18;;;;;;;29.55;18.58;;;;;;;14.64;74.76;101871.13;5034898;28;20404;-64
2021/09/02 04:55:45;;;;;;;32.53;19.45;;;;;;;14.81;75.06;101873.25;5035218;28;20045;-64
2021/09/02 04:58:13;;;;;;;36.10;19.23;;;;;;;14.82;75.07;101869.34;5034988;28;20076;-65
2021/09/02 05:00:41;;;;;;;30.70;18.77;;;;;;;14.73;74.13;101871.25;5034731;28;20064;-65
2021/09/02 05:03:09;;;;;;;31.15;18.92;;;;;;;14.66;74.45;101873.63;5034729;28;20049;-65
2021/09/02 05:05:37;;;;;;;39.83;20.75;;;;;;;14.53;75.32;101875.28;5034812;28;20053;-65
2021/09/02 05:08:05;;;;;;;33.05;19.15;;;;;;;14.86;75.36;101869.53;5035059;28;20060;-64
2021/09/02 05:10:33;;;;;;;32.85;18.33;;;;;;;15.02;74.60;101863.31;5034832;28;20057;-64
2021/09/02 05:13:00;;;;;;;29.73;18.27;;;;;;;14.81;74.55;101856.59;5034799;28;20041;-65
2021/09/02 05:15:27;;;;;;;36.00;18.73;;;;;;;14.76;74.48;101861.44;5034890;28;20413;-65
2021/09/02 05:17:55;;;;;;;31.63;19.23;;;;;;;14.64;74.38;101862.00;5034777;28;20050;-64
2021/09/02 05:20:22;;;;;;;35.00;20.98;;;;;;;14.40;75.59;101864.25;5032598;28;20057;-64
2021/09/02 05:22:49;;;;;;;36.83;20.08;;;;;;;14.35;75.04;101867.09;5033479;28;20493;-65
2021/09/02 05:25:17;;;;;;;35.25;19.73;;;;;;;14.33;76.50;101872.94;5034326;28;20064;-65
2021/09/02 05:27:44;;;;;;;37.92;21.45;;;;;;;14.36;75.83;101864.03;5026238;28;20524;-64
2021/09/02 05:30:13;;;;;;;36.08;20.73;;;;;;;14.29;75.92;101862.81;5014765;28;20057;-65
2021/09/02 05:32:45;;;;;;;35.63;21.45;;;;;;;14.18;76.24;101858.56;5025260;28;20060;-65
2021/09/02 05:35:13;;;;;;;37.45;22.00;;;;;;;14.08;76.85;101853.25;5034970;28;20045;-64
2021/09/02 05:37:40;;;;;;;34.65;20.30;;;;;;;14.30;76.15;101845.88;5034404;28;20053;-64
2021/09/02 05:40:08;;;;;;;32.30;20.08;;;;;;;14.43;75.53;101852.53;5034165;28;20128;-64
2021/09/02 05:42:36;;;;;;;38.40;21.15;;;;;;;14.49;75.55;101857.63;5027426;28;20053;-65
2021/09/02 05:45:04;;;;;;;41.97;22.52;;;;;;;14.38;75.60;101847.88;5014471;28;20046;-65
2021/09/02 05:47:33;;;;;;;39.53;20.63;;;;;;;14.13;76.33;101855.91;5024156;28;20057;-64
2021/09/02 05:50:01;;;;;;;34.08;19.50;;;;;;;14.53;75.43;101869.75;5033937;28;20045;-65
2021/09/02 05:52:28;;;;;;;45.28;21.92;;;;;;;14.31;75.42;101866.91;5032791;28;20053;-64
2021/09/02 05:54:58;;;;;;;35.33;21.30;;;;;;;14.43;75.15;101869.16;5026183;28;20038;-65
2021/09/02 05:57:25;;;;;;;38.92;21.13;;;;;;;14.37;75.50;101873.16;5014948;28;20125;-65
2021/09/02 05:59:52;;;;;;;39.55;23.00;;;;;;;14.55;76.56;101874.97;5020662;28;20056;-65
2021/09/02 06:02:20;;;;;;;43.55;23.10;;;;;;;14.20;79.06;101872.94;5027934;28;20064;-64
2021/09/02 06:04:47;;;;;;;37.00;20.40;;;;;;;14.67;78.75;101861.38;5023503;28;20121;-65
2021/09/02 06:07:14;;;;;;;37.00;22.60;;;;;;;14.74;78.98;101861.78;5033931;28;20053;-66
2021/09/02 06:09:41;;;;;;;41.88;21.08;;;;;;;14.66;77.17;101866.09;5028921;28;20358;-66
2021/09/02 06:12:09;;;;;;;43.20;21.63;;;;;;;14.53;76.54;101868.91;5027155;28;20508;-66
2021/09/02 06:14:36;;;;;;;39.83;21.60;;;;;;;14.66;76.84;101874.41;5022950;28;20053;-64
2021/09/02 06:17:05;;;;;;;39.30;23.83;;;;;;;14.31;75.52;101877.19;5022959;28;20385;-65
2021/09/02 06:19:32;;;;;;;41.80;21.70;;;;;;;14.23;76.49;101877.88;5033553;28;20059;-65
2021/09/02 06:22:00;;;;;;;43.40;22.92;;;;;;;14.79;76.46;101866.38;5027213;28;20080;-66
2021/09/02 06:24:27;;;;;;;39.60;21.52;;;;;;;14.78;76.47;101865.56;5022710;28;20148;-66
2021/09/02 06:26:55;;;;;;;37.80;21.45;;;;;;;14.86;74.46;101867.56;5020848;28;20053;-67
2021/09/02 06:29:22;;;;;;;40.70;22.75;;;;;;;14.96;73.05;101869.31;5016687;28;20061;-66
2021/09/02 06:31:50;;;;;;;42.72;24.25;;;;;;;14.39;74.64;101870.91;5015662;28;20061;-66
2021/09/02 06:34:17;;;;;;;42.47;23.33;;;;;;;14.65;74.84;101874.72;5032147;28;20514;-67
2021/09/02 06:36:44;;;;;;;40.88;24.67;;;;;;;14.85;73.52;101865.13;5016280;28;20536;-66
2021/09/02 06:39:14;;;;;;;42.35;23.45;;;;;;;14.70;74.18;101873.81;5013590;28;20050;-67
2021/09/02 06:41:41;;;;;;;40.60;23.25;;;;;;;14.70;73.68;101877.38;5013381;28;20042;-67
2021/09/02 06:44:09;;;;;;;42.30;24.90;;;;;;;14.72;73.27;101861.25;5017291;28;20046;-66
2021/09/02 06:46:36;;;;;;;45.75;22.42;;;;;;;14.85;73.24;101870.66;5027727;28;20664;-66
2021/09/02 06:49:03;;;;;;;37.95;23.02;;;;;;;14.95;74.14;101873.19;5020628;28;20060;-68
2021/09/02 06:51:30;;;;;;;44.47;23.60;;;;;;;14.89;72.99;101866.94;5012145;28;20057;-67
2021/09/02 06:53:58;;;;;;;46.35;23.20;;;;;;;14.74;73.86;101880.34;5016945;28;20046;-68
2021/09/02 06:56:25;;;;;;;37.63;22.20;;;;;;;15.14;73.12;101877.44;5013841;28;20065;-67
2021/09/02 06:58:52;;;;;;;43.38;24.42;;;;;;;15.28;72.35;101882.91;5032290;28;20557;-67
2021/09/02 07:01:19;;;;;;;42.15;22.50;;;;;;;15.24;72.24;101876.34;5020023;28;20050;-67
2021/09/02 07:03:47;;;;;;;45.42;23.55;;;;;;;15.37;71.67;101869.91;5029313;28;20053;-67
2021/09/02 07:06:14;;;;;;;48.40;24.50;;;;;;;14.96;72.83;101872.88;5030949;28;20054;-68
2021/09/02 07:08:42;;;;;;;43.53;24.65;;;;;;;15.08;72.50;101873.13;5017806;28;20069;-68
2021/09/02 07:11:09;;;;;;;45.92;23.77;;;;;;;15.13;72.36;101863.88;5012926;28;20046;-67
2021/09/02 07:13:37;;;;;;;47.67;24.02;;;;;;;15.31;71.64;101866.44;5022178;28;20046;-68
2021/09/02 07:16:05;;;;;;;50.50;23.98;;;;;;;15.23;72.17;101874.72;5020645;28;20058;-68
2021/09/02 07:18:32;;;;;;;38.53;22.77;;;;;;;15.54;71.52;101872.81;4999686;28;20130;-67
2021/09/02 07:20:59;;;;;;;48.28;23.88;;;;;;;15.61;70.40;101884.28;5022399;28;20049;-67
2021/09/02 07:23:26;;;;;;;46.47;24.55;;;;;;;15.88;69.83;101886.03;5034232;28;20049;-68
2021/09/02 07:25:54;;;;;;;44.65;25.08;;;;;;;15.31;70.79;101887.81;5025967;28;20038;-67
2021/09/02 07:28:21;;;;;;;47.97;26.13;;;;;;;15.44;71.06;101889.75;5035942;28;20065;-67
2021/09/02 07:30:48;;;;;;;46.42;25.63;;;;;;;15.36;70.57;101888.50;5020369;28;20061;-68
2021/09/02 07:33:16;;;;;;;45.92;24.65;;;;;;;15.39;70.88;101881.50;5034693;28;20050;-68
2021/09/02 07:35:43;;;;;;;45.17;24.38;;;;;;;15.54;70.68;101884.75;5032826;28;20045;-68
2021/09/02 07:38:10;;;;;;;41.60;24.25;;;;;;;15.50;70.47;101888.44;5017045;28;20174;-67
2021/09/02 07:40:37;;;;;;;47.33;24.98;;;;;;;15.29;71.60;101890.91;5021562;28;20551;-68
2021/09/02 07:43:04;;;;;;;48.42;24.60;;;;;;;15.40;71.43;101881.22;5030346;28;20045;-61
2021/09/02 07:45:32;;;;;;;50.15;25.35;;;;;;;15.28;71.55;101880.94;5023448;28;20053;-61
2021/09/02 07:47:59;;;;;;;48.38;25.50;;;;;;;15.29;71.75;101879.81;5028018;28;20061;-62
2021/09/02 07:50:27;;;;;;;45.17;25.17;;;;;;;15.50;70.97;101880.13;5031176;28;20050;-62
2021/09/02 07:52:54;;;;;;;42.50;23.77;;;;;;;15.75;69.94;101885.84;5028468;28;20052;-62
2021/09/02 07:55:21;;;;;;;48.03;24.63;;;;;;;15.64;70.44;101872.53;5029757;28;20044;-62
2021/09/02 07:57:48;;;;;;;44.25;23.42;;;;;;;15.82;69.72;101870.63;5031447;28;20052;-61
2021/09/02 08:00:17;;;;;;;43.05;24.42;;;;;;;15.43;70.96;101869.47;5033625;28;20037;-63
2021/09/02 08:02:45;;;;;;;43.63;23.58;;;;;;;15.55;70.83;101866.94;5048691;28;20219;-61
2021/09/02 08:05:13;;;;;;;38.92;24.08;;;;;;;15.82;69.67;101870.63;5050116;28;20046;-61
2021/09/02 08:07:47;;;;;;;38.70;22.05;;;;;;;16.28;68.57;101870.97;5035232;28;20067;-63
2021/09/02 08:10:16;;;;;;;52.95;24.55;;;;;;;16.30;67.76;101866.72;5034643;28;20052;-62
2021/09/02 08:12:43;;;;;;;39.00;22.85;;;;;;;16.12;68.51;101869.78;5033819;28;20045;-68
2021/09/02 08:15:11;;;;;;;43.58;25.55;;;;;;;16.03;68.65;101875.31;5036812;28;20393;-68
2021/09/02 08:17:39;;;;;;;44.33;23.50;;;;;;;16.09;68.36;101865.66;5017996;28;20050;-62
2021/09/02 08:20:07;;;;;;;40.42;24.00;;;;;;;16.04;68.76;101860.25;5020551;28;20057;-62
2021/09/02 08:22:34;;;;;;;41.53;24.60;;;;;;;16.23;68.10;101855.25;5027696;28;20132;-65
2021/09/02 08:25:04;;;;;;;43.10;23.63;;;;;;;16.34;67.72;101864.94;5029949;28;20049;-62
2021/09/02 08:27:31;;;;;;;42.22;23.55;;;;;;;16.22;68.01;101852.78;5024572;28;20050;-63
2021/09/02 08:29:59;;;;;;;42.22;24.63;;;;;;;16.43;67.70;101843.53;5031268;28;20529;-65
2021/09/02 08:32:27;;;;;;;37.75;22.88;;;;;;;16.66;67.14;101845.06;5022006;28;20076;-62
2021/09/02 08:34:54;;;;;;;49.17;24.42;;;;;;;16.65;66.65;101842.56;5017257;28;20054;-61
2021/09/02 08:37:21;;;;;;;45.55;23.88;;;;;;;16.76;66.46;101839.16;5034299;28;20685;-65
2021/09/02 08:39:50;;;;;;;43.45;24.70;;;;;;;16.59;66.83;101832.75;5033848;28;20048;-63
2021/09/02 08:42:18;;;;;;;43.90;25.65;;;;;;;16.62;66.78;101837.66;5019647;28;20076;-61
2021/09/02 08:44:45;;;;;;;46.00;24.52;;;;;;;16.67;66.64;101838.31;5027746;28;20042;-65
2021/09/02 08:47:12;;;;;;;47.75;25.13;;;;;;;16.81;66.34;101838.16;5026154;28;20057;-62
2021/09/02 08:49:40;;;;;;;38.53;22.83;;;;;;;16.70;66.96;101823.75;5026802;28;20060;-61
2021/09/02 08:52:07;;;;;;;43.20;24.80;;;;;;;16.81;66.61;101827.03;5029298;28;20057;-61
2021/09/02 08:54:34;;;;;;;41.28;23.63;;;;;;;16.82;66.66;101823.13;5016339;28;20490;-63
2021/09/02 08:57:02;;;;;;;44.90;25.90;;;;;;;16.99;66.21;101825.88;5027491;28;20052;-61
2021/09/02 08:59:29;;;;;;;40.22;23.75;;;;;;;17.11;65.83;101830.75;5027217;28;20045;-61
2021/09/02 09:01:56;;;;;;;38.42;23.75;;;;;;;17.05;65.67;101830.09;5022179;28;20042;-61
2021/09/02 09:04:33;;;;;;;37.65;22.98;;;;;;;17.13;65.77;101834.88;5024434;28;20065;-61
2021/09/02 09:07:00;;;;;;;42.80;25.02;;;;;;;16.95;66.23;101830.44;5034993;28;20049;-61
2021/09/02 09:09:27;;;;;;;41.88;24.10;;;;;;;16.99;66.50;101831.44;5030597;28;20053;-61
2021/09/02 09:12:00;;;;;;;39.30;23.17;;;;;;;17.30;65.68;101823.69;5027263;28;20045;-62
2021/09/02 09:14:28;;;;;;;46.38;24.17;;;;;;;17.44;64.84;101821.50;5036654;28;20049;-61
2021/09/02 09:16:58;;;;;;;43.42;24.60;;;;;;;17.23;65.55;101828.09;5030250;28;20041;-62
2021/09/02 09:19:42;;;;;;;42.58;24.15;;;;;;;17.38;65.38;101819.25;5026937;28;20064;-63
2021/09/02 09:22:11;;;;;;;43.97;23.48;;;;;;;17.49;64.96;101809.38;5022551;28;20057;-62
2021/09/02 09:24:43;;;;;;;38.70;23.38;;;;;;;17.52;64.79;101806.75;5027169;28;20080;-62
2021/09/02 09:27:12;;;;;;;41.33;23.58;;;;;;;17.69;64.65;101800.31;5028932;28;20053;-62
2021/09/02 09:29:39;;;;;;;39.85;23.73;;;;;;;17.73;64.31;101807.66;5015743;28;20053;-61
2021/09/02 09:32:11;;;;;;;37.90;22.92;;;;;;;17.63;64.63;101796.88;5029485;28;20536;-63
2021/09/02 09:34:50;;;;;;;35.83;23.25;;;;;;;17.59;64.75;101787.56;5030718;28;20061;-61
2021/09/02 09:37:20;;;;;;;35.08;22.42;;;;;;;17.58;65.01;101794.28;5042535;28;22115;-62
2021/09/02 09:39:48;;;;;;;38.00;22.70;;;;;;;17.74;64.44;101811.25;5031776;28;20060;-65
2021/09/02 09:42:18;;;;;;;40.50;21.90;;;;;;;17.80;64.09;101801.56;5031940;28;20060;-66
2021/09/02 09:44:45;;;;;;;35.78;20.73;;;;;;;17.95;63.75;101789.84;5034214;28;20045;-65
2021/09/02 09:47:19;;;;;;;38.25;20.92;;;;;;;17.93;63.32;101781.81;5031337;28;20057;-65
2021/09/02 09:50:00;;;;;;;36.00;20.35;;;;;;;18.06;63.31;101781.91;5021976;28;20046;-65
2021/09/02 09:52:35;;;;;;;35.30;21.20;;;;;;;18.14;63.13;101786.59;5030476;28;20046;-66
2021/09/02 09:55:16;;;;;;;36.70;19.52;;;;;;;18.19;62.85;101786.38;5032614;28;20041;-66
2021/09/02 09:57:46;;;;;;;30.80;19.92;;;;;;;18.31;62.66;101786.47;5025321;28;20053;-66
2021/09/02 10:00:15;;;;;;;37.10;20.40;;;;;;;18.35;62.91;101784.63;5013331;28;20053;-65
2021/09/02 10:02:48;;;;;;;32.88;19.45;;;;;;;18.38;62.21;101790.34;5021075;28;20065;-66
2021/09/02 10:05:17;;;;;;;31.88;19.63;;;;;;;18.43;62.10;101778.22;5032358;28;20080;-66
2021/09/02 10:07:46;;;;;;;34.63;19.02;;;;;;;18.43;62.07;101772.66;5007692;28;20050;-65
2021/09/02 10:10:16;;;;;;;35.90;19.17;;;;;;;18.55;61.58;101767.13;5014139;28;20051;-66
2021/09/02 10:12:48;;;;;;;29.80;19.35;;;;;;;18.54;61.93;101763.50;5034888;28;20076;-65
2021/09/02 10:15:18;;;;;;;35.47;18.00;;;;;;;18.66;61.83;101763.56;5037270;28;20053;-68
2021/09/02 10:17:46;;;;;;;32.10;18.70;;;;;;;18.87;60.64;101752.34;5031490;28;20045;-67
2021/09/02 10:20:20;;;;;;;28.77;17.95;;;;;;;18.98;60.03;101757.19;5028681;28;20046;-68
2021/09/02 10:22:48;;;;;;;27.40;17.75;;;;;;;18.98;60.08;101761.94;5012613;28;20058;-66
2021/09/02 10:25:41;;;;;;;27.65;15.60;;;;;;;19.04;60.07;101757.75;5030390;28;20042;-70
2021/09/02 10:28:16;;;;;;;27.90;16.52;;;;;;;19.38;58.94;101757.41;5010130;28;20506;-69
2021/09/02 10:30:46;;;;;;;27.15;16.95;;;;;;;19.41;59.20;101751.09;5026408;28;20524;-67
2021/09/02 10:33:37;;;;;;;32.28;16.77;;;;;;;19.44;59.26;101750.41;5023206;28;20065;-65
2021/09/02 10:36:11;;;;;;;27.75;15.60;;;;;;;19.53;58.37;101756.69;5020680;28;20045;-69
2021/09/02 10:38:50;;;;;;;30.10;17.73;;;;;;;19.63;58.24;101741.47;5032250;28;20053;-67
2021/09/02 10:41:34;;;;;;;25.05;16.48;;;;;;;19.55;58.91;101748.78;5032467;28;20567;-69
2021/09/02 10:44:06;;;;;;;27.35;16.02;;;;;;;19.64;58.27;101740.28;5032447;28;20061;-70
2021/09/02 10:46:47;;;;;;;30.10;14.75;;;;;;;19.73;57.68;101749.38;5030269;28;20050;-67
2021/09/02 10:49:18;;;;;;;23.67;15.27;;;;;;;19.88;57.10;101745.84;5025824;28;20072;-70
2021/09/02 10:51:56;;;;;;;23.88;14.27;;;;;;;19.95;56.75;101743.28;5029380;28;20053;-69
2021/09/02 10:54:30;;;;;;;23.15;14.85;;;;;;;19.85;57.68;101747.38;5025585;28;20053;-71
2021/09/02 10:57:06;;;;;;;24.88;16.00;;;;;;;19.86;57.41;101743.41;5030295;28;20209;-66
2021/09/02 10:59:37;;;;;;;28.15;17.52;;;;;;;20.03;56.36;101737.56;5036755;28;20056;-67
2021/09/02 11:02:17;;;;;;;25.15;14.77;;;;;;;20.06;55.48;101736.06;5026220;28;20061;-66
2021/09/02 11:04:46;;;;;;;21.60;14.30;;;;;;;20.08;55.27;101742.13;5020103;28;20062;-67
2021/09/02 11:07:13;;;;;;;24.93;15.27;;;;;;;20.17;55.28;101748.44;5024551;28;20704;-62
2021/09/02 11:09:42;;;;;;;21.25;14.23;;;;;;;20.20;55.51;101741.28;5031447;28;20050;-62
2021/09/02 11:12:11;;;;;;;20.65;13.48;;;;;;;20.29;54.79;101733.59;5032941;28;20053;-62
2021/09/02 11:14:42;;;;;;;17.27;11.67;;;;;;;20.28;53.78;101737.53;5034273;28;20583;-61
2021/09/02 11:17:10;;;;;;;22.00;11.63;;;;;;;20.50;53.86;101740.63;5036214;28;20045;-61